Time,TemperatureF,DewpointF,PressureIn,WindDirection,WindDirectionDegrees,WindSpeedMPH,WindSpeedGustMPH,Humidity,HourlyPrecipIn,Conditions,Clouds,dailyrainin,SolarRadiationWatts/m^2,SoftwareType,DateUTC
2013-07-15 00:02:00,70.0,40.0,-100.00,NNE,31,2.0,5.0,34,-99.99,,,0.00,0.000000,,2013-07-15 06:02:00,
2013-07-15 00:11:00,70.0,40.0,-100.00,NNE,31,2.0,5.0,34,-99.99,,,0.00,0.000000,,2013-07-15 06:11:00,
2013-07-15 00:42:00,62.0,42.0,-100.00,SSE,162,1.0,2.0,49,-99.99,,,-99.99,0.000000,,2013-07-15 06:42:00,
2013-07-15 00:53:00,62.0,42.0,-100.00,SSE,162,1.0,2.0,49,-99.99,,,-99.99,0.000000,,2013-07-15 06:53:00,
2013-07-15 01:01:00,62.0,42.0,-100.00,SSE,162,1.0,2.0,49,-99.99,,,-99.99,0.000000,,2013-07-15 07:01:00,
2013-07-15 01:11:00,62.0,42.0,-100.00,SSE,162,1.0,2.0,49,-99.99,,,-99.99,0.000000,,2013-07-15 07:11:00,
2013-07-15 01:43:00,56.0,45.0,-100.00,SE,125,1.0,2.0,65,-99.99,,,0.00,0.000000,,2013-07-15 07:43:00,
2013-07-15 01:53:00,56.0,45.0,-100.00,SE,125,1.0,2.0,65,-99.99,,,0.00,0.000000,,2013-07-15 07:53:00,
2013-07-15 02:01:00,56.0,45.0,-100.00,SE,125,1.0,2.0,65,-99.99,,,0.00,0.000000,,2013-07-15 08:01:00,
2013-07-15 02:11:00,56.0,45.0,-100.00,SE,125,1.0,2.0,65,-99.99,,,0.00,0.000000,,2013-07-15 08:11:00,
2013-07-15 02:43:00,53.0,44.0,-100.00,ESE,107,3.0,4.0,70,-99.99,,,-99.99,0.000000,,2013-07-15 08:43:00,
2013-07-15 02:53:00,53.0,44.0,-100.00,ESE,107,3.0,4.0,70,-99.99,,,-99.99,0.000000,,2013-07-15 08:53:00,
2013-07-15 03:01:00,53.0,44.0,-100.00,ESE,107,3.0,4.0,70,-99.99,,,-99.99,0.000000,,2013-07-15 09:01:00,
2013-07-15 03:11:00,53.0,44.0,-100.00,ESE,107,3.0,4.0,70,-99.99,,,-99.99,0.000000,,2013-07-15 09:11:00,
2013-07-15 03:42:00,53.0,43.0,-100.00,East,84,0.0,2.0,69,-99.99,,,0.00,0.000000,,2013-07-15 09:42:00,
2013-07-15 03:52:00,53.0,43.0,-100.00,East,84,0.0,2.0,69,-99.99,,,0.00,0.000000,,2013-07-15 09:52:00,
2013-07-15 04:02:00,53.0,43.0,-100.00,East,84,0.0,2.0,69,-99.99,,,0.00,0.000000,,2013-07-15 10:02:00,
2013-07-15 04:11:00,53.0,43.0,-100.00,East,84,0.0,2.0,69,-99.99,,,0.00,0.000000,,2013-07-15 10:11:00,
2013-07-15 04:42:00,52.0,43.0,-100.00,SE,124,3.0,4.0,71,-99.99,,,0.00,0.000000,,2013-07-15 10:42:00,
2013-07-15 04:53:00,52.0,43.0,-100.00,SE,124,3.0,4.0,71,-99.99,,,0.00,0.000000,,2013-07-15 10:53:00,
2013-07-15 05:01:00,52.0,43.0,-100.00,SE,124,3.0,4.0,71,-99.99,,,0.00,0.000000,,2013-07-15 11:01:00,
2013-07-15 05:11:00,52.0,43.0,-100.00,SE,124,3.0,4.0,71,-99.99,,,0.00,0.000000,,2013-07-15 11:11:00,
2013-07-15 05:42:00,53.0,41.0,-100.00,East,93,1.0,3.0,63,-99.99,,,-99.99,0.000000,,2013-07-15 11:42:00,
2013-07-15 05:52:00,53.0,41.0,-100.00,East,93,1.0,3.0,63,-99.99,,,-99.99,0.000000,,2013-07-15 11:52:00,
2013-07-15 06:01:00,53.0,41.0,-100.00,East,93,1.0,3.0,63,-99.99,,,-99.99,0.000000,,2013-07-15 12:01:00,
2013-07-15 06:11:00,53.0,41.0,-100.00,East,93,1.0,3.0,63,-99.99,,,-99.99,0.000000,,2013-07-15 12:11:00,
2013-07-15 06:42:00,52.0,40.0,-100.00,SSW,199,0.0,0.0,65,-99.99,,,0.00,7.550000,,2013-07-15 12:42:00,
2013-07-15 06:53:00,52.0,40.0,-100.00,SSW,199,0.0,0.0,65,-99.99,,,0.00,7.550000,,2013-07-15 12:53:00,
2013-07-15 07:01:00,52.0,40.0,-100.00,SSW,199,0.0,0.0,65,-99.99,,,0.00,7.550000,,2013-07-15 13:01:00,
2013-07-15 07:11:00,52.0,40.0,-100.00,SSW,199,0.0,0.0,65,-99.99,,,0.00,7.550000,,2013-07-15 13:11:00,
2013-07-15 07:43:00,57.0,44.0,-100.00,SSE,152,1.0,2.0,62,-99.99,,,0.00,136.910004,,2013-07-15 13:43:00,
2013-07-15 07:53:00,57.0,44.0,-100.00,SSE,152,1.0,2.0,62,-99.99,,,0.00,136.910004,,2013-07-15 13:53:00,
2013-07-15 08:02:00,57.0,44.0,-100.00,SSE,152,1.0,2.0,62,-99.99,,,0.00,136.910004,,2013-07-15 14:02:00,
2013-07-15 08:11:00,57.0,44.0,-100.00,SSE,152,1.0,2.0,62,-99.99,,,0.00,136.910004,,2013-07-15 14:11:00,
2013-07-15 08:42:00,62.0,43.0,-100.00,West,269,1.0,2.0,49,-99.99,,,0.00,264.170013,,2013-07-15 14:42:00,
2013-07-15 09:03:00,62.0,43.0,-100.00,West,269,1.0,2.0,49,-99.99,,,0.00,264.170013,,2013-07-15 15:03:00,
2013-07-15 09:13:00,62.0,43.0,-100.00,West,269,1.0,2.0,49,-99.99,,,0.00,264.170013,,2013-07-15 15:13:00,
2013-07-15 09:45:00,66.0,45.0,-100.00,SE,130,1.0,2.0,45,-99.99,,,0.00,469.179993,,2013-07-15 15:45:00,
2013-07-15 09:53:00,66.0,45.0,-100.00,SE,130,1.0,2.0,45,-99.99,,,0.00,469.179993,,2013-07-15 15:53:00,
2013-07-15 10:03:00,66.0,45.0,-100.00,SE,130,1.0,2.0,45,-99.99,,,0.00,469.179993,,2013-07-15 16:03:00,
2013-07-15 10:13:00,66.0,45.0,-100.00,SE,130,1.0,2.0,45,-99.99,,,0.00,469.179993,,2013-07-15 16:13:00,
2013-07-15 10:44:00,72.0,43.0,-100.00,NE,37,2.0,5.0,35,-99.99,,,0.00,637.469971,,2013-07-15 16:44:00,
2013-07-15 10:52:00,72.0,43.0,-100.00,NE,37,2.0,5.0,35,-99.99,,,0.00,637.469971,,2013-07-15 16:52:00,
2013-07-15 11:02:00,72.0,43.0,-100.00,NE,37,2.0,5.0,35,-99.99,,,0.00,637.469971,,2013-07-15 17:02:00,
2013-07-15 11:46:00,75.0,48.0,-100.00,NW,315,2.0,5.0,38,-99.99,,,0.00,796.340027,,2013-07-15 17:46:00,
2013-07-15 11:58:00,75.0,48.0,-100.00,NW,315,2.0,5.0,38,-99.99,,,0.00,796.340027,,2013-07-15 17:58:00,
2013-07-15 12:03:00,75.0,48.0,-100.00,NW,315,2.0,5.0,38,-99.99,,,0.00,796.340027,,2013-07-15 18:03:00,
2013-07-15 12:12:00,75.0,48.0,-100.00,NW,315,2.0,5.0,38,-99.99,,,0.00,796.340027,,2013-07-15 18:12:00,
2013-07-15 12:45:00,79.0,49.0,-100.00,NNW,331,2.0,6.0,35,-99.99,,,0.00,900.710022,,2013-07-15 18:45:00,
2013-07-15 12:58:00,79.0,49.0,-100.00,NNW,331,2.0,6.0,35,-99.99,,,0.00,900.710022,,2013-07-15 18:58:00,
2013-07-15 13:03:00,79.0,49.0,-100.00,NNW,331,2.0,6.0,35,-99.99,,,0.00,900.710022,,2013-07-15 19:03:00,
2013-07-15 13:11:00,79.0,49.0,-100.00,NNW,331,2.0,6.0,35,-99.99,,,0.00,900.710022,,2013-07-15 19:11:00,
2013-07-15 13:56:00,83.0,49.0,-100.00,NW,325,2.0,7.0,31,-99.99,,,0.00,957.650024,,2013-07-15 19:56:00,
2013-07-15 14:03:00,83.0,49.0,-100.00,NW,325,2.0,7.0,31,-99.99,,,0.00,957.650024,,2013-07-15 20:03:00,
2013-07-15 14:13:00,83.0,49.0,-100.00,NW,325,2.0,7.0,31,-99.99,,,0.00,957.650024,,2013-07-15 20:13:00,
2013-07-15 14:43:00,88.0,45.0,-100.00,ENE,75,2.0,4.0,22,-99.99,,,0.00,961.140015,,2013-07-15 20:43:00,
2013-07-15 14:57:00,88.0,45.0,-100.00,ENE,75,2.0,4.0,22,-99.99,,,0.00,961.140015,,2013-07-15 20:57:00,
2013-07-15 15:02:00,88.0,45.0,-100.00,ENE,75,2.0,4.0,22,-99.99,,,0.00,961.140015,,2013-07-15 21:02:00,
2013-07-15 15:12:00,88.0,45.0,-100.00,ENE,75,2.0,4.0,22,-99.99,,,0.00,961.140015,,2013-07-15 21:12:00,
2013-07-15 15:59:00,90.0,40.0,-100.00,NW,310,3.0,9.0,17,-99.99,,,0.00,905.349976,,2013-07-15 21:59:00,
2013-07-15 16:13:00,90.0,40.0,-100.00,NW,310,3.0,9.0,17,-99.99,,,0.00,905.349976,,2013-07-15 22:13:00,
2013-07-15 16:43:00,89.0,41.0,-100.00,West,281,12.0,20.0,18,-99.99,,,0.00,822.840027,,2013-07-15 22:43:00,
2013-07-15 16:54:00,89.0,41.0,-100.00,West,281,12.0,20.0,18,-99.99,,,0.00,822.840027,,2013-07-15 22:54:00,
2013-07-15 17:03:00,89.0,41.0,-100.00,West,281,12.0,20.0,18,-99.99,,,0.00,822.840027,,2013-07-15 23:03:00,
2013-07-15 17:13:00,89.0,41.0,-100.00,West,281,12.0,20.0,18,-99.99,,,0.00,822.840027,,2013-07-15 23:13:00,
2013-07-15 17:54:00,90.0,38.0,-100.00,West,279,10.0,21.0,16,-99.99,,,-99.99,685.349976,,2013-07-15 23:54:00,
2013-07-15 18:03:00,90.0,38.0,-100.00,West,279,10.0,21.0,16,-99.99,,,-99.99,685.349976,,2013-07-16 00:03:00,
2013-07-15 18:12:00,90.0,38.0,-100.00,West,279,10.0,21.0,16,-99.99,,,-99.99,685.349976,,2013-07-16 00:12:00,
2013-07-15 20:00:00,91.0,44.0,-100.00,North,7,1.0,4.0,19,-99.99,,,0.00,333.899994,,2013-07-16 02:00:00,
2013-07-15 20:11:00,91.0,44.0,-100.00,North,7,1.0,4.0,19,-99.99,,,0.00,333.899994,,2013-07-16 02:11:00,
2013-07-15 20:45:00,84.0,45.0,-100.00,North,8,1.0,6.0,26,-99.99,,,0.00,182.470001,,2013-07-16 02:45:00,
2013-07-15 20:54:00,84.0,45.0,-100.00,North,8,1.0,6.0,26,-99.99,,,0.00,182.470001,,2013-07-16 02:54:00,
2013-07-15 21:03:00,84.0,45.0,-100.00,North,8,1.0,6.0,26,-99.99,,,0.00,182.470001,,2013-07-16 03:03:00,
2013-07-15 21:57:00,81.0,36.0,-100.00,NE,41,3.0,10.0,19,-99.99,,,0.00,16.040001,,2013-07-16 03:57:00,
2013-07-15 22:01:00,81.0,36.0,-100.00,NE,41,3.0,10.0,19,-99.99,,,0.00,16.040001,,2013-07-16 04:01:00,
2013-07-15 22:12:00,81.0,36.0,-100.00,NE,41,3.0,10.0,19,-99.99,,,0.00,16.040001,,2013-07-16 04:12:00,
2013-07-15 22:43:00,70.0,45.0,-100.00,WNW,284,1.0,4.0,40,-99.99,,,-99.99,0.000000,,2013-07-16 04:43:00,
2013-07-15 22:53:00,70.0,45.0,-100.00,WNW,284,1.0,4.0,40,-99.99,,,-99.99,0.000000,,2013-07-16 04:53:00,
2013-07-15 23:11:00,70.0,45.0,-100.00,WNW,284,1.0,4.0,40,-99.99,,,-99.99,0.000000,,2013-07-16 05:11:00,
2013-07-15 23:43:00,67.0,43.0,-100.00,NE,49,0.0,1.0,40,-99.99,,,0.00,0.000000,,2013-07-16 05:43:00,
2013-07-15 23:52:00,67.0,43.0,-100.00,NE,49,0.0,1.0,40,-99.99,,,0.00,0.000000,,2013-07-16 05:52:00,